sensor_id;sensor_type;location;lat;lon;timestamp;temperature;humidity
6443;DHT22;3254;47.372;8.512;2022-08-25T00:01:14;17.20;15.60
6443;DHT22;3254;47.372;8.512;2022-08-25T00:03:41;17.20;16.90
6443;DHT22;3254;47.372;8.512;2022-08-25T00:06:08;17.20;17.80
6443;DHT22;3254;47.372;8.512;2022-08-25T00:08:34;17.10;20.40
6443;DHT22;3254;47.372;8.512;2022-08-25T00:11:04;17.00;22.40
6443;DHT22;3254;47.372;8.512;2022-08-25T00:13:32;16.80;25.00
6443;DHT22;3254;47.372;8.512;2022-08-25T00:15:58;16.70;27.60
6443;DHT22;3254;47.372;8.512;2022-08-25T00:18:24;16.80;29.60
6443;DHT22;3254;47.372;8.512;2022-08-25T00:20:50;16.70;31.70
6443;DHT22;3254;47.372;8.512;2022-08-25T00:23:17;16.60;32.30
6443;DHT22;3254;47.372;8.512;2022-08-25T00:25:43;16.60;37.30
6443;DHT22;3254;47.372;8.512;2022-08-25T00:28:09;16.50;39.90
6443;DHT22;3254;47.372;8.512;2022-08-25T00:30:35;16.40;44.70
6443;DHT22;3254;47.372;8.512;2022-08-25T00:33:01;16.50;46.90
6443;DHT22;3254;47.372;8.512;2022-08-25T00:35:30;16.40;46.20
6443;DHT22;3254;47.372;8.512;2022-08-25T00:37:56;16.50;48.60
6443;DHT22;3254;47.372;8.512;2022-08-25T00:40:24;16.40;50.50
6443;DHT22;3254;47.372;8.512;2022-08-25T00:42:50;16.30;52.30
6443;DHT22;3254;47.372;8.512;2022-08-25T00:45:16;16.20;57.10
6443;DHT22;3254;47.372;8.512;2022-08-25T00:47:43;16.00;61.30
6443;DHT22;3254;47.372;8.512;2022-08-25T00:50:09;15.90;68.40
6443;DHT22;3254;47.372;8.512;2022-08-25T00:53:02;15.90;75.20
6443;DHT22;3254;47.372;8.512;2022-08-25T00:55:36;16.00;79.80
6443;DHT22;3254;47.372;8.512;2022-08-25T00:58:19;16.10;78.50
6443;DHT22;3254;47.372;8.512;2022-08-25T01:00:50;16.10;77.80
6443;DHT22;3254;47.372;8.512;2022-08-25T01:03:18;16.00;80.00
6443;DHT22;3254;47.372;8.512;2022-08-25T01:05:45;16.00;82.80
6443;DHT22;3254;47.372;8.512;2022-08-25T01:08:12;16.00;85.30
6443;DHT22;3254;47.372;8.512;2022-08-25T01:10:42;15.90;85.40
6443;DHT22;3254;47.372;8.512;2022-08-25T01:13:14;15.80;87.60
6443;DHT22;3254;47.372;8.512;2022-08-25T01:15:44;15.70;92.00
6443;DHT22;3254;47.372;8.512;2022-08-25T01:18:10;15.80;93.30
6443;DHT22;3254;47.372;8.512;2022-08-25T01:20:36;15.90;93.60
6443;DHT22;3254;47.372;8.512;2022-08-25T01:23:04;15.80;93.20
6443;DHT22;3254;47.372;8.512;2022-08-25T01:28:34;15.70;96.30
6443;DHT22;3254;47.372;8.512;2022-08-25T01:31:00;15.80;97.10
6443;DHT22;3254;47.372;8.512;2022-08-25T01:33:27;15.80;95.70
6443;DHT22;3254;47.372;8.512;2022-08-25T01:35:53;15.80;95.50
6443;DHT22;3254;47.372;8.512;2022-08-25T01:38:19;15.70;97.60
6443;DHT22;3254;47.372;8.512;2022-08-25T01:40:45;15.60;98.20
6443;DHT22;3254;47.372;8.512;2022-08-25T01:45:43;15.40;99.90
6443;DHT22;3254;47.372;8.512;2022-08-25T01:48:11;15.20;99.90
6443;DHT22;3254;47.372;8.512;2022-08-25T01:50:38;15.10;99.90
6443;DHT22;3254;47.372;8.512;2022-08-25T01:53:22;15.00;99.90
6443;DHT22;3254;47.372;8.512;2022-08-25T01:55:56;15.50;99.90
6443;DHT22;3254;47.372;8.512;2022-08-25T01:58:34;15.30;99.90
6443;DHT22;3254;47.372;8.512;2022-08-25T02:01:12;15.30;99.90
6443;DHT22;3254;47.372;8.512;2022-08-25T02:03:43;15.30;99.90
6443;DHT22;3254;47.372;8.512;2022-08-25T02:06:25;15.30;99.90
6443;DHT22;3254;47.372;8.512;2022-08-25T02:08:55;15.20;99.90
6443;DHT22;3254;47.372;8.512;2022-08-25T02:11:23;15.20;99.90
6443;DHT22;3254;47.372;8.512;2022-08-25T02:13:52;15.20;99.90
6443;DHT22;3254;47.372;8.512;2022-08-25T02:16:24;15.40;99.90
6443;DHT22;3254;47.372;8.512;2022-08-25T02:18:55;15.60;99.90
6443;DHT22;3254;47.372;8.512;2022-08-25T02:21:21;15.30;99.90
6443;DHT22;3254;47.372;8.512;2022-08-25T02:23:47;15.20;99.90
6443;DHT22;3254;47.372;8.512;2022-08-25T02:26:18;15.10;99.90
6443;DHT22;3254;47.372;8.512;2022-08-25T02:28:46;15.00;99.90
6443;DHT22;3254;47.372;8.512;2022-08-25T02:31:20;15.10;99.90
6443;DHT22;3254;47.372;8.512;2022-08-25T02:33:46;15.00;99.90
6443;DHT22;3254;47.372;8.512;2022-08-25T02:36:12;15.10;99.90
6443;DHT22;3254;47.372;8.512;2022-08-25T02:38:38;15.10;99.90
6443;DHT22;3254;47.372;8.512;2022-08-25T02:41:18;15.20;99.90
6443;DHT22;3254;47.372;8.512;2022-08-25T02:43:46;15.20;99.90
6443;DHT22;3254;47.372;8.512;2022-08-25T02:46:14;15.20;99.90
6443;DHT22;3254;47.372;8.512;2022-08-25T02:48:41;15.20;99.90
6443;DHT22;3254;47.372;8.512;2022-08-25T02:51:08;15.20;99.90
6443;DHT22;3254;47.372;8.512;2022-08-25T02:53:35;15.20;99.90
6443;DHT22;3254;47.372;8.512;2022-08-25T02:56:04;15.20;99.90
6443;DHT22;3254;47.372;8.512;2022-08-25T02:58:30;15.20;99.90
6443;DHT22;3254;47.372;8.512;2022-08-25T03:00:56;15.20;99.90
6443;DHT22;3254;47.372;8.512;2022-08-25T03:03:23;15.10;99.90
6443;DHT22;3254;47.372;8.512;2022-08-25T03:05:49;15.10;99.90
6443;DHT22;3254;47.372;8.512;2022-08-25T03:08:15;15.10;99.90
6443;DHT22;3254;47.372;8.512;2022-08-25T03:10:40;15.00;99.90
6443;DHT22;3254;47.372;8.512;2022-08-25T03:13:06;14.80;99.90
6443;DHT22;3254;47.372;8.512;2022-08-25T03:15:32;14.90;99.90
6443;DHT22;3254;47.372;8.512;2022-08-25T03:18:02;14.90;99.90
6443;DHT22;3254;47.372;8.512;2022-08-25T03:20:27;14.90;99.90
6443;DHT22;3254;47.372;8.512;2022-08-25T03:22:55;15.00;99.90
6443;DHT22;3254;47.372;8.512;2022-08-25T03:25:21;14.90;99.90
6443;DHT22;3254;47.372;8.512;2022-08-25T03:28:06;14.90;99.90
6443;DHT22;3254;47.372;8.512;2022-08-25T03:30:32;14.70;99.90
6443;DHT22;3254;47.372;8.512;2022-08-25T03:32:58;14.50;99.90
6443;DHT22;3254;47.372;8.512;2022-08-25T03:35:24;14.40;99.90
6443;DHT22;3254;47.372;8.512;2022-08-25T03:37:49;14.40;99.90
6443;DHT22;3254;47.372;8.512;2022-08-25T03:40:19;14.40;99.90
6443;DHT22;3254;47.372;8.512;2022-08-25T03:42:48;14.40;99.90
6443;DHT22;3254;47.372;8.512;2022-08-25T03:45:16;14.60;99.90
6443;DHT22;3254;47.372;8.512;2022-08-25T03:47:47;14.70;99.90
6443;DHT22;3254;47.372;8.512;2022-08-25T03:50:15;14.80;99.90
6443;DHT22;3254;47.372;8.512;2022-08-25T03:52:41;14.80;99.90
6443;DHT22;3254;47.372;8.512;2022-08-25T03:55:09;14.80;99.90
6443;DHT22;3254;47.372;8.512;2022-08-25T03:57:35;14.70;99.90
6443;DHT22;3254;47.372;8.512;2022-08-25T04:00:02;14.70;99.90
6443;DHT22;3254;47.372;8.512;2022-08-25T04:02:28;14.60;99.90
6443;DHT22;3254;47.372;8.512;2022-08-25T04:04:55;14.50;99.90
6443;DHT22;3254;47.372;8.512;2022-08-25T04:07:21;14.40;99.90
6443;DHT22;3254;47.372;8.512;2022-08-25T04:09:48;14.40;99.90
6443;DHT22;3254;47.372;8.512;2022-08-25T04:12:16;14.50;99.90
6443;DHT22;3254;47.372;8.512;2022-08-25T04:14:41;14.70;99.90
6443;DHT22;3254;47.372;8.512;2022-08-25T04:17:07;14.60;99.90
6443;DHT22;3254;47.372;8.512;2022-08-25T04:19:34;14.50;99.90
6443;DHT22;3254;47.372;8.512;2022-08-25T04:22:00;14.40;99.90
6443;DHT22;3254;47.372;8.512;2022-08-25T04:24:25;14.30;99.90
6443;DHT22;3254;47.372;8.512;2022-08-25T04:26:51;14.20;99.90
6443;DHT22;3254;47.372;8.512;2022-08-25T04:29:21;14.00;99.90
6443;DHT22;3254;47.372;8.512;2022-08-25T04:31:47;14.00;99.90
6443;DHT22;3254;47.372;8.512;2022-08-25T04:34:18;13.90;99.90
6443;DHT22;3254;47.372;8.512;2022-08-25T04:36:44;13.90;99.90
6443;DHT22;3254;47.372;8.512;2022-08-25T04:39:11;14.10;99.90
6443;DHT22;3254;47.372;8.512;2022-08-25T04:41:36;14.10;99.90
6443;DHT22;3254;47.372;8.512;2022-08-25T04:44:02;14.20;99.90
6443;DHT22;3254;47.372;8.512;2022-08-25T04:46:31;14.40;99.90
6443;DHT22;3254;47.372;8.512;2022-08-25T04:49:01;14.50;99.90
6443;DHT22;3254;47.372;8.512;2022-08-25T04:51:33;14.50;99.90
6443;DHT22;3254;47.372;8.512;2022-08-25T04:54:03;14.50;99.90
6443;DHT22;3254;47.372;8.512;2022-08-25T04:56:30;14.60;99.90
6443;DHT22;3254;47.372;8.512;2022-08-25T04:59:02;14.50;99.90
6443;DHT22;3254;47.372;8.512;2022-08-25T05:01:27;14.60;99.90
6443;DHT22;3254;47.372;8.512;2022-08-25T05:03:59;14.60;99.90
6443;DHT22;3254;47.372;8.512;2022-08-25T05:06:25;14.60;99.90
6443;DHT22;3254;47.372;8.512;2022-08-25T05:08:51;14.60;99.90
6443;DHT22;3254;47.372;8.512;2022-08-25T05:11:18;14.70;99.90
6443;DHT22;3254;47.372;8.512;2022-08-25T05:13:47;14.70;99.90
6443;DHT22;3254;47.372;8.512;2022-08-25T05:16:13;14.70;99.90
6443;DHT22;3254;47.372;8.512;2022-08-25T05:18:40;14.70;99.90
6443;DHT22;3254;47.372;8.512;2022-08-25T05:21:12;14.80;99.90
6443;DHT22;3254;47.372;8.512;2022-08-25T05:23:39;14.90;99.90
6443;DHT22;3254;47.372;8.512;2022-08-25T05:26:17;15.00;99.90
6443;DHT22;3254;47.372;8.512;2022-08-25T05:28:43;15.00;99.90
6443;DHT22;3254;47.372;8.512;2022-08-25T05:31:11;15.00;99.90
6443;DHT22;3254;47.372;8.512;2022-08-25T05:33:38;15.00;99.90
6443;DHT22;3254;47.372;8.512;2022-08-25T05:36:05;15.10;99.90
6443;DHT22;3254;47.372;8.512;2022-08-25T05:38:31;15.10;99.90
6443;DHT22;3254;47.372;8.512;2022-08-25T05:41:06;15.20;99.90
6443;DHT22;3254;47.372;8.512;2022-08-25T05:43:36;15.20;99.90
6443;DHT22;3254;47.372;8.512;2022-08-25T05:46:02;15.20;99.90
6443;DHT22;3254;47.372;8.512;2022-08-25T05:48:27;15.20;99.90
6443;DHT22;3254;47.372;8.512;2022-08-25T05:50:57;15.30;99.90
6443;DHT22;3254;47.372;8.512;2022-08-25T05:53:25;15.40;99.90
6443;DHT22;3254;47.372;8.512;2022-08-25T05:55:52;15.60;99.90
6443;DHT22;3254;47.372;8.512;2022-08-25T05:58:19;15.80;99.90
6443;DHT22;3254;47.372;8.512;2022-08-25T06:00:50;15.80;99.90
6443;DHT22;3254;47.372;8.512;2022-08-25T06:03:16;15.90;99.90
6443;DHT22;3254;47.372;8.512;2022-08-25T06:05:42;16.00;99.90
6443;DHT22;3254;47.372;8.512;2022-08-25T06:08:07;16.00;99.90
6443;DHT22;3254;47.372;8.512;2022-08-25T06:10:33;16.00;99.90
6443;DHT22;3254;47.372;8.512;2022-08-25T06:13:03;16.10;99.90
6443;DHT22;3254;47.372;8.512;2022-08-25T06:15:30;16.20;99.90
6443;DHT22;3254;47.372;8.512;2022-08-25T06:17:57;16.20;99.90
6443;DHT22;3254;47.372;8.512;2022-08-25T06:20:27;16.30;99.90
6443;DHT22;3254;47.372;8.512;2022-08-25T06:22:53;16.40;99.90
6443;DHT22;3254;47.372;8.512;2022-08-25T06:25:21;16.50;99.90
6443;DHT22;3254;47.372;8.512;2022-08-25T06:27:48;16.70;99.90
6443;DHT22;3254;47.372;8.512;2022-08-25T06:30:16;16.80;99.90
6443;DHT22;3254;47.372;8.512;2022-08-25T06:32:46;16.80;99.90
6443;DHT22;3254;47.372;8.512;2022-08-25T06:35:16;16.90;99.90
6443;DHT22;3254;47.372;8.512;2022-08-25T06:37:42;16.90;99.90
6443;DHT22;3254;47.372;8.512;2022-08-25T06:40:09;17.00;99.10
6443;DHT22;3254;47.372;8.512;2022-08-25T06:42:36;17.00;98.40
6443;DHT22;3254;47.372;8.512;2022-08-25T06:45:03;17.10;98.50
6443;DHT22;3254;47.372;8.512;2022-08-25T06:47:28;17.20;97.00
6443;DHT22;3254;47.372;8.512;2022-08-25T06:49:54;17.30;95.20
6443;DHT22;3254;47.372;8.512;2022-08-25T06:52:20;17.40;92.40
6443;DHT22;3254;47.372;8.512;2022-08-25T06:54:45;17.50;90.00
6443;DHT22;3254;47.372;8.512;2022-08-25T06:57:11;17.50;90.60
6443;DHT22;3254;47.372;8.512;2022-08-25T06:59:37;17.60;88.30
6443;DHT22;3254;47.372;8.512;2022-08-25T07:02:04;17.70;87.60
6443;DHT22;3254;47.372;8.512;2022-08-25T07:04:31;17.80;82.00
6443;DHT22;3254;47.372;8.512;2022-08-25T07:06:58;17.80;77.60
6443;DHT22;3254;47.372;8.512;2022-08-25T07:09:23;17.90;74.50
6443;DHT22;3254;47.372;8.512;2022-08-25T07:11:49;18.00;73.70
6443;DHT22;3254;47.372;8.512;2022-08-25T07:14:17;18.10;71.10
6443;DHT22;3254;47.372;8.512;2022-08-25T07:16:43;18.30;65.20
6443;DHT22;3254;47.372;8.512;2022-08-25T07:19:09;18.40;58.90
6443;DHT22;3254;47.372;8.512;2022-08-25T07:21:38;18.40;58.90
6443;DHT22;3254;47.372;8.512;2022-08-25T07:24:10;18.50;56.40
6443;DHT22;3254;47.372;8.512;2022-08-25T07:26:38;18.70;54.60
6443;DHT22;3254;47.372;8.512;2022-08-25T07:29:12;19.00;49.50
6443;DHT22;3254;47.372;8.512;2022-08-25T07:31:39;19.50;42.10
6443;DHT22;3254;47.372;8.512;2022-08-25T07:34:06;20.40;30.00
6443;DHT22;3254;47.372;8.512;2022-08-25T07:36:50;21.70;16.20
6443;DHT22;3254;47.372;8.512;2022-08-25T07:39:16;23.20;1.00
6443;DHT22;3254;47.372;8.512;2022-08-25T07:41:42;24.40;1.00
6443;DHT22;3254;47.372;8.512;2022-08-25T07:44:09;25.40;1.00
6443;DHT22;3254;47.372;8.512;2022-08-25T07:46:35;26.00;1.00
6443;DHT22;3254;47.372;8.512;2022-08-25T07:49:01;26.70;1.00
6443;DHT22;3254;47.372;8.512;2022-08-25T07:51:27;26.90;1.00
6443;DHT22;3254;47.372;8.512;2022-08-25T07:53:53;27.30;1.00
6443;DHT22;3254;47.372;8.512;2022-08-25T07:56:18;27.90;1.00
6443;DHT22;3254;47.372;8.512;2022-08-25T07:58:45;28.20;1.00
6443;DHT22;3254;47.372;8.512;2022-08-25T08:01:20;29.00;1.00
6443;DHT22;3254;47.372;8.512;2022-08-25T08:03:46;28.90;1.00
6443;DHT22;3254;47.372;8.512;2022-08-25T08:06:14;29.20;1.00
6443;DHT22;3254;47.372;8.512;2022-08-25T08:08:41;29.40;1.00
6443;DHT22;3254;47.372;8.512;2022-08-25T08:11:31;29.50;1.00
6443;DHT22;3254;47.372;8.512;2022-08-25T08:14:01;29.80;1.00
6443;DHT22;3254;47.372;8.512;2022-08-25T08:16:29;29.70;1.00
6443;DHT22;3254;47.372;8.512;2022-08-25T08:18:56;29.70;1.00
6443;DHT22;3254;47.372;8.512;2022-08-25T08:21:27;29.70;1.00
6443;DHT22;3254;47.372;8.512;2022-08-25T08:23:58;30.00;1.00
6443;DHT22;3254;47.372;8.512;2022-08-25T08:26:25;29.90;1.00
6443;DHT22;3254;47.372;8.512;2022-08-25T08:28:53;30.30;1.00
6443;DHT22;3254;47.372;8.512;2022-08-25T08:31:20;30.70;1.00
6443;DHT22;3254;47.372;8.512;2022-08-25T08:33:48;30.50;1.00
6443;DHT22;3254;47.372;8.512;2022-08-25T08:36:14;30.70;1.00
6443;DHT22;3254;47.372;8.512;2022-08-25T08:38:42;30.70;1.00
6443;DHT22;3254;47.372;8.512;2022-08-25T08:49:59;30.00;1.00
6443;DHT22;3254;47.372;8.512;2022-08-25T08:52:40;30.50;1.00
6443;DHT22;3254;47.372;8.512;2022-08-25T08:55:22;31.40;1.00
6443;DHT22;3254;47.372;8.512;2022-08-25T08:57:51;31.50;1.00
6443;DHT22;3254;47.372;8.512;2022-08-25T09:00:20;32.30;1.00
6443;DHT22;3254;47.372;8.512;2022-08-25T09:02:56;32.70;1.00
6443;DHT22;3254;47.372;8.512;2022-08-25T09:05:26;32.50;1.00
6443;DHT22;3254;47.372;8.512;2022-08-25T09:07:57;32.50;1.00
6443;DHT22;3254;47.372;8.512;2022-08-25T09:10:31;33.00;1.00
6443;DHT22;3254;47.372;8.512;2022-08-25T09:13:15;33.50;1.00
6443;DHT22;3254;47.372;8.512;2022-08-25T09:19:08;33.90;1.00
6443;DHT22;3254;47.372;8.512;2022-08-25T09:21:45;34.20;1.00
6443;DHT22;3254;47.372;8.512;2022-08-25T09:29:21;34.20;1.00
6443;DHT22;3254;47.372;8.512;2022-08-25T09:31:50;34.40;1.00
6443;DHT22;3254;47.372;8.512;2022-08-25T09:34:22;34.00;1.00
6443;DHT22;3254;47.372;8.512;2022-08-25T09:36:49;33.90;1.00
6443;DHT22;3254;47.372;8.512;2022-08-25T09:39:17;33.70;1.00
6443;DHT22;3254;47.372;8.512;2022-08-25T09:41:47;34.40;1.00
6443;DHT22;3254;47.372;8.512;2022-08-25T09:47:23;35.50;1.00
6443;DHT22;3254;47.372;8.512;2022-08-25T09:50:00;35.60;1.00
6443;DHT22;3254;47.372;8.512;2022-08-25T09:52:38;36.40;1.00
6443;DHT22;3254;47.372;8.512;2022-08-25T09:57:52;35.50;1.00
6443;DHT22;3254;47.372;8.512;2022-08-25T10:00:27;35.80;1.00
6443;DHT22;3254;47.372;8.512;2022-08-25T10:03:20;36.20;1.00
6443;DHT22;3254;47.372;8.512;2022-08-25T10:11:08;36.30;1.00
6443;DHT22;3254;47.372;8.512;2022-08-25T10:18:37;36.20;1.00
6443;DHT22;3254;47.372;8.512;2022-08-25T10:23:49;36.50;1.00
6443;DHT22;3254;47.372;8.512;2022-08-25T10:35:12;37.90;1.00
6443;DHT22;3254;47.372;8.512;2022-08-25T10:40:22;37.90;1.00
6443;DHT22;3254;47.372;8.512;2022-08-25T10:45:46;37.60;1.00
6443;DHT22;3254;47.372;8.512;2022-08-25T10:48:38;38.20;1.00
6443;DHT22;3254;47.372;8.512;2022-08-25T10:57:20;40.40;1.00
6443;DHT22;3254;47.372;8.512;2022-08-25T11:05:33;38.60;1.00
6443;DHT22;3254;47.372;8.512;2022-08-25T11:08:38;39.40;1.00
6443;DHT22;3254;47.372;8.512;2022-08-25T11:14:27;39.60;1.00
6443;DHT22;3254;47.372;8.512;2022-08-25T11:16:58;40.40;1.00
6443;DHT22;3254;47.372;8.512;2022-08-25T11:19:36;39.70;1.00
6443;DHT22;3254;47.372;8.512;2022-08-25T11:28:17;38.60;1.00
6443;DHT22;3254;47.372;8.512;2022-08-25T11:30:50;39.10;1.00
6443;DHT22;3254;47.372;8.512;2022-08-25T11:33:27;39.10;1.00
6443;DHT22;3254;47.372;8.512;2022-08-25T11:36:08;39.20;1.00
6443;DHT22;3254;47.372;8.512;2022-08-25T11:38:55;39.50;1.00
6443;DHT22;3254;47.372;8.512;2022-08-25T11:50:28;40.90;1.00
6443;DHT22;3254;47.372;8.512;2022-08-25T11:53:18;41.70;1.00
6443;DHT22;3254;47.372;8.512;2022-08-25T11:55:51;42.20;1.00
6443;DHT22;3254;47.372;8.512;2022-08-25T12:00:59;42.80;1.00
6443;DHT22;3254;47.372;8.512;2022-08-25T12:06:36;42.30;1.00
6443;DHT22;3254;47.372;8.512;2022-08-25T12:09:23;41.90;1.00
6443;DHT22;3254;47.372;8.512;2022-08-25T12:11:54;41.30;1.00
6443;DHT22;3254;47.372;8.512;2022-08-25T12:24:46;41.90;1.00
6443;DHT22;3254;47.372;8.512;2022-08-25T12:29:51;40.70;1.00
6443;DHT22;3254;47.372;8.512;2022-08-25T12:38:09;40.70;1.00
6443;DHT22;3254;47.372;8.512;2022-08-25T12:43:11;41.50;1.00
6443;DHT22;3254;47.372;8.512;2022-08-25T12:45:43;41.60;1.00
6443;DHT22;3254;47.372;8.512;2022-08-25T12:56:25;41.80;1.00
6443;DHT22;3254;47.372;8.512;2022-08-25T12:59:14;42.00;1.00
6443;DHT22;3254;47.372;8.512;2022-08-25T13:10:24;41.90;1.00
6443;DHT22;3254;47.372;8.512;2022-08-25T13:16:04;42.00;1.00
6443;DHT22;3254;47.372;8.512;2022-08-25T13:18:34;42.40;1.00
6443;DHT22;3254;47.372;8.512;2022-08-25T13:21:27;42.90;1.00
6443;DHT22;3254;47.372;8.512;2022-08-25T13:23:57;43.40;1.00
6443;DHT22;3254;47.372;8.512;2022-08-25T13:26:33;43.60;1.00
6443;DHT22;3254;47.372;8.512;2022-08-25T13:29:12;43.20;1.00
6443;DHT22;3254;47.372;8.512;2022-08-25T13:31:57;43.40;1.00
6443;DHT22;3254;47.372;8.512;2022-08-25T13:34:31;43.60;1.00
6443;DHT22;3254;47.372;8.512;2022-08-25T13:37:07;43.60;1.00
6443;DHT22;3254;47.372;8.512;2022-08-25T13:42:47;41.80;1.00
6443;DHT22;3254;47.372;8.512;2022-08-25T13:45:19;41.80;1.00
6443;DHT22;3254;47.372;8.512;2022-08-25T13:47:46;42.20;1.00
6443;DHT22;3254;47.372;8.512;2022-08-25T13:57:59;43.20;1.00
6443;DHT22;3254;47.372;8.512;2022-08-25T14:00:46;43.30;1.00
6443;DHT22;3254;47.372;8.512;2022-08-25T14:03:42;43.70;1.00
6443;DHT22;3254;47.372;8.512;2022-08-25T14:11:56;43.90;1.00
6443;DHT22;3254;47.372;8.512;2022-08-25T14:19:29;43.10;1.00
6443;DHT22;3254;47.372;8.512;2022-08-25T14:21:56;43.20;1.00
6443;DHT22;3254;47.372;8.512;2022-08-25T14:24:27;44.10;1.00
6443;DHT22;3254;47.372;8.512;2022-08-25T14:26:56;44.00;1.00
6443;DHT22;3254;47.372;8.512;2022-08-25T14:29:24;44.00;1.00
6443;DHT22;3254;47.372;8.512;2022-08-25T14:31:50;43.70;1.00
6443;DHT22;3254;47.372;8.512;2022-08-25T14:34:18;43.20;1.00
6443;DHT22;3254;47.372;8.512;2022-08-25T14:36:44;43.20;1.00
6443;DHT22;3254;47.372;8.512;2022-08-25T14:39:11;43.70;1.00
6443;DHT22;3254;47.372;8.512;2022-08-25T14:41:39;44.10;1.00
6443;DHT22;3254;47.372;8.512;2022-08-25T14:44:09;44.90;1.00
6443;DHT22;3254;47.372;8.512;2022-08-25T14:46:42;45.40;1.00
6443;DHT22;3254;47.372;8.512;2022-08-25T14:49:14;46.00;1.00
6443;DHT22;3254;47.372;8.512;2022-08-25T14:51:41;45.70;1.00
6443;DHT22;3254;47.372;8.512;2022-08-25T14:54:10;45.80;1.00
6443;DHT22;3254;47.372;8.512;2022-08-25T14:56:38;46.00;1.00
6443;DHT22;3254;47.372;8.512;2022-08-25T14:59:04;46.80;1.00
6443;DHT22;3254;47.372;8.512;2022-08-25T15:01:30;47.00;1.00
6443;DHT22;3254;47.372;8.512;2022-08-25T15:04:10;46.60;1.00
6443;DHT22;3254;47.372;8.512;2022-08-25T15:06:39;46.00;1.00
6443;DHT22;3254;47.372;8.512;2022-08-25T15:09:08;46.00;1.00
6443;DHT22;3254;47.372;8.512;2022-08-25T15:11:50;46.10;1.00
6443;DHT22;3254;47.372;8.512;2022-08-25T15:14:19;46.30;1.00
6443;DHT22;3254;47.372;8.512;2022-08-25T15:16:55;46.30;1.00
6443;DHT22;3254;47.372;8.512;2022-08-25T15:19:24;46.20;1.00
6443;DHT22;3254;47.372;8.512;2022-08-25T15:21:52;46.00;1.00
6443;DHT22;3254;47.372;8.512;2022-08-25T15:24:18;45.00;1.00
6443;DHT22;3254;47.372;8.512;2022-08-25T15:26:58;44.40;1.00
6443;DHT22;3254;47.372;8.512;2022-08-25T15:29:25;44.60;1.00
6443;DHT22;3254;47.372;8.512;2022-08-25T15:31:53;44.40;1.00
6443;DHT22;3254;47.372;8.512;2022-08-25T15:34:19;44.50;1.00
6443;DHT22;3254;47.372;8.512;2022-08-25T15:36:45;43.70;1.00
6443;DHT22;3254;47.372;8.512;2022-08-25T15:39:12;43.80;1.00
6443;DHT22;3254;47.372;8.512;2022-08-25T15:41:38;44.00;1.00
6443;DHT22;3254;47.372;8.512;2022-08-25T15:44:06;44.50;1.00
6443;DHT22;3254;47.372;8.512;2022-08-25T15:46:32;44.10;1.00
6443;DHT22;3254;47.372;8.512;2022-08-25T15:48:59;44.30;1.00
6443;DHT22;3254;47.372;8.512;2022-08-25T15:51:26;44.70;1.00
6443;DHT22;3254;47.372;8.512;2022-08-25T15:53:54;44.70;1.00
6443;DHT22;3254;47.372;8.512;2022-08-25T15:56:20;45.10;1.00
6443;DHT22;3254;47.372;8.512;2022-08-25T15:58:48;44.90;1.00
6443;DHT22;3254;47.372;8.512;2022-08-25T16:01:16;44.70;1.00
6443;DHT22;3254;47.372;8.512;2022-08-25T16:03:42;44.60;1.00
6443;DHT22;3254;47.372;8.512;2022-08-25T16:06:09;43.90;1.00
6443;DHT22;3254;47.372;8.512;2022-08-25T16:08:37;42.60;1.00
6443;DHT22;3254;47.372;8.512;2022-08-25T16:11:04;43.20;1.00
6443;DHT22;3254;47.372;8.512;2022-08-25T16:13:30;43.20;1.00
6443;DHT22;3254;47.372;8.512;2022-08-25T16:15:58;42.20;1.00
6443;DHT22;3254;47.372;8.512;2022-08-25T16:18:24;41.80;1.00
6443;DHT22;3254;47.372;8.512;2022-08-25T16:20:51;40.90;1.00
6443;DHT22;3254;47.372;8.512;2022-08-25T16:23:18;41.40;1.00
6443;DHT22;3254;47.372;8.512;2022-08-25T16:26:05;41.20;1.00
6443;DHT22;3254;47.372;8.512;2022-08-25T16:28:52;40.50;1.00
6443;DHT22;3254;47.372;8.512;2022-08-25T16:31:37;40.20;1.00
6443;DHT22;3254;47.372;8.512;2022-08-25T16:34:22;40.40;1.00
6443;DHT22;3254;47.372;8.512;2022-08-25T16:37:07;41.20;1.00
6443;DHT22;3254;47.372;8.512;2022-08-25T16:39:55;41.70;1.00
6443;DHT22;3254;47.372;8.512;2022-08-25T16:42:39;40.80;1.00
6443;DHT22;3254;47.372;8.512;2022-08-25T16:45:24;40.90;1.00
6443;DHT22;3254;47.372;8.512;2022-08-25T16:48:09;40.60;1.00
6443;DHT22;3254;47.372;8.512;2022-08-25T16:50:53;39.80;1.00
6443;DHT22;3254;47.372;8.512;2022-08-25T16:53:37;39.50;1.00
6443;DHT22;3254;47.372;8.512;2022-08-25T16:56:41;39.90;1.00
6443;DHT22;3254;47.372;8.512;2022-08-25T16:59:26;40.10;1.00
6443;DHT22;3254;47.372;8.512;2022-08-25T17:02:11;39.60;1.00
6443;DHT22;3254;47.372;8.512;2022-08-25T17:04:55;39.50;1.00
6443;DHT22;3254;47.372;8.512;2022-08-25T17:07:40;38.60;1.00
6443;DHT22;3254;47.372;8.512;2022-08-25T17:10:24;38.40;1.00
6443;DHT22;3254;47.372;8.512;2022-08-25T17:13:08;38.00;1.00
6443;DHT22;3254;47.372;8.512;2022-08-25T17:15:53;37.20;1.00
6443;DHT22;3254;47.372;8.512;2022-08-25T17:18:37;36.70;1.00
6443;DHT22;3254;47.372;8.512;2022-08-25T17:21:23;36.00;1.00
6443;DHT22;3254;47.372;8.512;2022-08-25T17:24:10;35.90;1.00
6443;DHT22;3254;47.372;8.512;2022-08-25T17:26:55;35.90;1.00
6443;DHT22;3254;47.372;8.512;2022-08-25T17:29:39;35.60;1.00
6443;DHT22;3254;47.372;8.512;2022-08-25T17:32:10;35.50;1.00
6443;DHT22;3254;47.372;8.512;2022-08-25T17:34:35;35.40;1.00
6443;DHT22;3254;47.372;8.512;2022-08-25T17:37:03;35.10;1.00
6443;DHT22;3254;47.372;8.512;2022-08-25T17:39:48;34.70;1.00
6443;DHT22;3254;47.372;8.512;2022-08-25T17:42:14;34.40;1.00
6443;DHT22;3254;47.372;8.512;2022-08-25T17:44:39;34.10;1.00
6443;DHT22;3254;47.372;8.512;2022-08-25T17:47:05;33.90;1.00
6443;DHT22;3254;47.372;8.512;2022-08-25T17:49:31;33.30;1.00
6443;DHT22;3254;47.372;8.512;2022-08-25T17:51:58;33.00;1.00
6443;DHT22;3254;47.372;8.512;2022-08-25T17:54:23;32.60;1.00
6443;DHT22;3254;47.372;8.512;2022-08-25T17:56:49;32.10;1.00
6443;DHT22;3254;47.372;8.512;2022-08-25T17:59:14;31.70;1.00
6443;DHT22;3254;47.372;8.512;2022-08-25T18:01:41;31.00;1.00
6443;DHT22;3254;47.372;8.512;2022-08-25T18:04:08;30.10;1.00
6443;DHT22;3254;47.372;8.512;2022-08-25T18:06:33;29.40;1.00
6443;DHT22;3254;47.372;8.512;2022-08-25T18:08:59;28.80;1.00
6443;DHT22;3254;47.372;8.512;2022-08-25T18:11:27;28.50;1.00
6443;DHT22;3254;47.372;8.512;2022-08-25T18:13:54;28.10;1.00
6443;DHT22;3254;47.372;8.512;2022-08-25T18:16:21;27.80;1.00
6443;DHT22;3254;47.372;8.512;2022-08-25T18:18:46;27.50;1.00
6443;DHT22;3254;47.372;8.512;2022-08-25T18:21:14;27.30;1.00
6443;DHT22;3254;47.372;8.512;2022-08-25T18:23:42;27.20;1.00
6443;DHT22;3254;47.372;8.512;2022-08-25T18:26:09;27.00;1.00
6443;DHT22;3254;47.372;8.512;2022-08-25T18:28:35;26.90;1.00
6443;DHT22;3254;47.372;8.512;2022-08-25T18:31:00;26.70;1.00
6443;DHT22;3254;47.372;8.512;2022-08-25T18:33:26;26.50;1.00
6443;DHT22;3254;47.372;8.512;2022-08-25T18:35:54;26.30;1.00
6443;DHT22;3254;47.372;8.512;2022-08-25T18:38:20;26.10;1.00
6443;DHT22;3254;47.372;8.512;2022-08-25T18:41:06;26.00;1.00
6443;DHT22;3254;47.372;8.512;2022-08-25T18:43:33;25.90;1.00
6443;DHT22;3254;47.372;8.512;2022-08-25T18:46:00;25.80;1.00
6443;DHT22;3254;47.372;8.512;2022-08-25T18:48:28;25.60;1.00
6443;DHT22;3254;47.372;8.512;2022-08-25T18:50:55;25.50;1.00
6443;DHT22;3254;47.372;8.512;2022-08-25T18:53:23;25.30;1.00
6443;DHT22;3254;47.372;8.512;2022-08-25T18:55:51;25.20;1.00
6443;DHT22;3254;47.372;8.512;2022-08-25T18:58:24;25.00;1.00
6443;DHT22;3254;47.372;8.512;2022-08-25T19:00:50;24.90;1.00
6443;DHT22;3254;47.372;8.512;2022-08-25T19:03:17;24.70;1.00
6443;DHT22;3254;47.372;8.512;2022-08-25T19:05:46;24.60;1.00